createdAt,value
2019-02-27T00:01:40.663Z,12.80
2019-02-27T00:04:45.639Z,12.70
2019-02-27T00:07:51.875Z,12.60
2019-02-27T00:10:57.142Z,12.50
2019-02-27T00:14:02.141Z,12.40
2019-02-27T00:17:08.288Z,12.30
2019-02-27T00:20:13.558Z,12.20
2019-02-27T00:23:18.813Z,12.10
2019-02-27T00:26:23.683Z,12.00
2019-02-27T00:29:29.052Z,11.90
2019-02-27T00:32:35.850Z,11.80
2019-02-27T00:35:40.828Z,11.60
2019-02-27T00:38:45.964Z,11.50
2019-02-27T00:41:50.960Z,11.40
2019-02-27T00:44:55.965Z,11.20
2019-02-27T00:48:00.881Z,11.00
2019-02-27T00:51:05.986Z,10.90
2019-02-27T00:54:10.992Z,10.70
2019-02-27T00:57:20.602Z,10.70
2019-02-27T01:00:22.674Z,10.60
2019-02-27T01:03:27.670Z,10.50
2019-02-27T01:06:32.729Z,10.30
2019-02-27T01:09:39.445Z,10.20
2019-02-27T01:12:44.660Z,10.10
2019-02-27T01:15:49.916Z,9.90
2019-02-27T01:18:54.870Z,10.00
2019-02-27T01:21:59.957Z,9.90
2019-02-27T01:25:05.436Z,9.70
2019-02-27T01:28:11.071Z,9.70
2019-02-27T01:31:16.776Z,9.70
2019-02-27T01:34:22.301Z,9.70
2019-02-27T01:37:31.346Z,9.60
2019-02-27T01:40:34.396Z,9.60
2019-02-27T01:43:40.075Z,9.50
2019-02-27T01:46:45.666Z,9.50
2019-02-27T01:49:50.769Z,9.40
2019-02-27T01:52:55.788Z,9.30
2019-02-27T01:56:00.787Z,9.40
2019-02-27T01:59:05.780Z,9.40
2019-02-27T02:02:10.952Z,9.40
2019-02-27T02:05:15.765Z,9.40
2019-02-27T02:08:20.821Z,9.30
2019-02-27T02:11:25.916Z,9.30
2019-02-27T02:14:57.847Z,9.30
2019-02-27T02:18:45.734Z,9.30
2019-02-27T02:21:57.279Z,9.20
2019-02-27T02:25:40.449Z,9.30
2019-02-27T02:29:44.317Z,9.30
2019-02-27T02:33:29.134Z,9.40
2019-02-27T02:36:41.026Z,9.40
2019-02-27T02:40:31.174Z,9.60
2019-02-27T02:44:13.090Z,9.70
2019-02-27T02:47:37.026Z,9.90
2019-02-27T02:51:40.952Z,10.10
2019-02-27T02:55:12.504Z,10.20
2019-02-27T02:59:11.520Z,10.20
2019-02-27T03:02:29.870Z,9.90
2019-02-27T03:06:34.654Z,9.80
2019-02-27T03:10:07.103Z,9.60
2019-02-27T03:13:31.006Z,9.60
2019-02-27T03:16:59.721Z,9.40
2019-02-27T03:20:40.691Z,9.30
2019-02-27T03:24:28.370Z,9.30
2019-02-27T03:28:15.753Z,9.20
2019-02-27T03:31:59.894Z,9.20
2019-02-27T03:35:39.831Z,9.20
2019-02-27T03:39:26.974Z,9.10
2019-02-27T03:43:10.082Z,9.00
2019-02-27T03:46:34.350Z,9.10
2019-02-27T03:50:14.597Z,9.00
2019-02-27T03:53:46.559Z,9.00
2019-02-27T03:57:27.931Z,8.90
2019-02-27T04:00:57.163Z,8.90
2019-02-27T04:04:17.059Z,8.90
2019-02-27T04:08:15.075Z,8.90
2019-02-27T04:11:20.269Z,8.90
2019-02-27T04:14:29.048Z,8.70
2019-02-27T04:17:33.665Z,8.60
2019-02-27T04:20:38.934Z,8.60
2019-02-27T04:23:47.840Z,8.60
2019-02-27T04:26:50.563Z,8.60
2019-02-27T04:29:55.682Z,8.60
2019-02-27T04:33:00.642Z,8.60
2019-02-27T04:36:05.727Z,8.60
2019-02-27T04:39:10.818Z,8.60
2019-02-27T04:42:15.771Z,8.50
2019-02-27T04:45:20.878Z,8.50
2019-02-27T04:48:27.031Z,8.40
2019-02-27T04:51:32.576Z,8.30
2019-02-27T04:54:41.260Z,8.20
2019-02-27T04:57:44.382Z,8.20
2019-02-27T05:00:49.291Z,8.20
2019-02-27T05:03:54.408Z,8.20
2019-02-27T05:06:59.397Z,8.20
2019-02-27T05:10:06.921Z,8.20
2019-02-27T05:13:11.469Z,8.20
2019-02-27T05:16:16.398Z,8.20
2019-02-27T05:19:21.592Z,8.00
2019-02-27T05:22:26.753Z,8.00
2019-02-27T05:25:32.215Z,8.00
2019-02-27T05:28:37.273Z,7.90
2019-02-27T05:31:42.301Z,7.90
2019-02-27T05:34:49.771Z,7.90
2019-02-27T05:37:54.005Z,7.90
2019-02-27T05:41:00.026Z,7.90
2019-02-27T05:44:05.630Z,7.80
2019-02-27T05:47:11.084Z,7.80
2019-02-27T05:50:20.036Z,7.80
2019-02-27T05:53:24.989Z,7.80
2019-02-27T05:56:29.930Z,7.80
2019-02-27T05:59:34.949Z,7.80
2019-02-27T06:02:41.953Z,7.90
2019-02-27T06:05:49.557Z,7.90
2019-02-27T06:08:53.391Z,7.90
2019-02-27T06:11:58.389Z,7.90
2019-02-27T06:15:03.542Z,7.90
2019-02-27T06:18:08.578Z,7.90
2019-02-27T06:21:16.407Z,7.80
2019-02-27T06:24:20.567Z,7.90
2019-02-27T06:27:25.705Z,7.80
2019-02-27T06:30:31.369Z,7.80
2019-02-27T06:33:36.487Z,7.90
2019-02-27T06:36:42.763Z,7.90
2019-02-27T06:39:47.995Z,7.80
2019-02-27T06:42:53.855Z,7.80
2019-02-27T06:45:59.448Z,7.90
2019-02-27T06:49:04.553Z,7.90
2019-02-27T06:52:09.884Z,7.90
2019-02-27T06:55:15.055Z,8.10
2019-02-27T06:58:20.114Z,8.10
2019-02-27T07:01:26.242Z,8.20
2019-02-27T07:04:31.557Z,8.30
2019-02-27T07:07:36.864Z,8.40
2019-02-27T07:10:41.741Z,8.40
2019-02-27T07:13:46.653Z,8.50
2019-02-27T07:16:51.706Z,8.60
2019-02-27T07:19:56.623Z,8.70
2019-02-27T07:23:01.803Z,8.80
2019-02-27T07:26:06.589Z,8.90
2019-02-27T07:29:21.110Z,8.90
2019-02-27T07:32:18.301Z,9.10
2019-02-27T07:35:26.395Z,9.20
2019-02-27T07:38:31.757Z,9.20
2019-02-27T07:41:36.677Z,9.40
2019-02-27T07:44:42.268Z,9.50
2019-02-27T07:47:47.316Z,9.60
2019-02-27T07:50:52.298Z,9.70
2019-02-27T07:53:57.329Z,9.80
2019-02-27T07:57:02.341Z,9.90
2019-02-27T08:00:18.376Z,10.00
2019-02-27T08:03:23.529Z,10.10
2019-02-27T08:06:28.522Z,10.20
2019-02-27T08:09:33.605Z,10.30
2019-02-27T08:12:38.636Z,10.40
2019-02-27T08:15:44.252Z,10.60
2019-02-27T08:18:49.529Z,10.70
2019-02-27T08:21:54.521Z,10.90
2019-02-27T08:25:18.380Z,11.00
2019-02-27T08:28:26.478Z,11.30
2019-02-27T08:31:32.105Z,11.50
2019-02-27T08:34:37.400Z,11.70
2019-02-27T08:37:42.267Z,13.40
2019-02-27T08:40:47.260Z,17.40
2019-02-27T08:43:52.374Z,20.70
2019-02-27T08:46:57.447Z,23.80
2019-02-27T08:50:04.009Z,25.40
2019-02-27T08:53:09.165Z,25.00
2019-02-27T08:56:14.251Z,26.50
2019-02-27T08:59:19.276Z,27.30
2019-02-27T09:02:29.165Z,28.90
2019-02-27T09:05:31.189Z,30.20
2019-02-27T09:08:36.304Z,32.30
2019-02-27T09:11:41.347Z,33.90
2019-02-27T09:14:46.309Z,33.70
2019-02-27T09:17:51.404Z,34.00
2019-02-27T09:20:56.389Z,32.70
2019-02-27T09:24:01.528Z,32.60
2019-02-27T09:27:06.495Z,33.30
2019-02-27T09:30:13.156Z,34.90
2019-02-27T09:33:19.984Z,35.90
2019-02-27T09:36:24.669Z,37.30
2019-02-27T09:39:31.214Z,37.10
2019-02-27T09:42:36.573Z,36.40
2019-02-27T09:45:46.522Z,37.50
2019-02-27T09:48:50.605Z,39.40
2019-02-27T09:51:56.369Z,39.80
2019-02-27T09:55:01.916Z,40.20
2019-02-27T09:58:11.121Z,40.80
2019-02-27T10:01:16.914Z,40.20
2019-02-27T10:04:22.168Z,40.20
2019-02-27T10:07:27.127Z,40.80
2019-02-27T10:10:32.493Z,42.70
2019-02-27T10:13:37.969Z,43.10
2019-02-27T10:16:43.582Z,43.10
2019-02-27T10:19:48.689Z,41.80
2019-02-27T10:22:54.062Z,41.70
2019-02-27T10:25:59.355Z,41.80
2019-02-27T10:29:04.366Z,41.40
2019-02-27T10:32:09.442Z,42.60
2019-02-27T10:35:15.261Z,43.30
2019-02-27T10:38:20.545Z,42.40
2019-02-27T10:41:25.558Z,43.20
2019-02-27T10:44:33.595Z,42.50
2019-02-27T10:47:39.919Z,43.30
2019-02-27T10:50:45.317Z,43.50
2019-02-27T10:53:50.441Z,43.70
2019-02-27T10:56:56.305Z,43.80
2019-02-27T11:00:01.894Z,45.40
2019-02-27T11:03:06.838Z,45.00
2019-02-27T11:06:11.951Z,44.00
2019-02-27T11:09:24.804Z,45.20
2019-02-27T11:12:30.095Z,45.40
2019-02-27T11:15:35.208Z,45.10
2019-02-27T11:18:40.370Z,45.20
2019-02-27T11:21:45.669Z,44.30
2019-02-27T11:24:52.426Z,45.00
2019-02-27T11:28:04.995Z,43.20
2019-02-27T11:31:04.418Z,45.40
2019-02-27T11:34:09.439Z,47.10
2019-02-27T11:37:16.430Z,47.70
2019-02-27T11:40:22.080Z,48.00
2019-02-27T11:43:27.955Z,48.70
2019-02-27T11:46:35.156Z,48.80
2019-02-27T11:49:40.103Z,47.10
2019-02-27T11:52:48.807Z,46.70
2019-02-27T11:55:52.560Z,46.70
2019-02-27T11:58:57.336Z,47.30
2019-02-27T12:02:02.344Z,48.00
2019-02-27T12:05:07.918Z,48.60
2019-02-27T12:08:16.399Z,48.60
2019-02-27T12:11:21.658Z,48.00
2019-02-27T12:14:26.612Z,46.60
2019-02-27T12:17:31.794Z,45.80
2019-02-27T12:20:37.058Z,46.30
2019-02-27T12:23:44.199Z,46.90
2019-02-27T12:26:48.493Z,47.50
2019-02-27T12:29:53.489Z,47.90
2019-02-27T12:32:58.701Z,47.60
2019-02-27T12:36:03.961Z,45.40
2019-02-27T12:39:08.874Z,46.30
2019-02-27T12:42:14.001Z,46.90
2019-02-27T12:45:20.355Z,47.90
2019-02-27T12:48:25.317Z,48.20
2019-02-27T12:51:39.531Z,48.90
2019-02-27T12:54:44.614Z,49.10
2019-02-27T12:57:52.342Z,49.40
2019-02-27T13:00:57.040Z,49.60
2019-02-27T13:04:02.036Z,48.80
2019-02-27T13:07:10.480Z,47.80
2019-02-27T13:10:16.276Z,47.60
2019-02-27T13:13:23.313Z,48.20
2019-02-27T13:16:28.560Z,47.50
2019-02-27T13:19:33.673Z,47.10
2019-02-27T13:22:38.521Z,46.10
2019-02-27T13:25:43.709Z,44.50
2019-02-27T13:28:49.654Z,44.00
2019-02-27T13:31:56.549Z,44.20
2019-02-27T13:35:01.811Z,43.80
2019-02-27T13:38:07.124Z,44.40
2019-02-27T13:41:12.657Z,44.40
2019-02-27T13:44:17.830Z,42.80
2019-02-27T13:47:25.028Z,39.90
2019-02-27T13:50:31.824Z,39.00
2019-02-27T13:53:36.726Z,38.70
2019-02-27T13:56:41.783Z,38.40
2019-02-27T13:59:47.137Z,37.60
2019-02-27T14:03:12.633Z,36.50
2019-02-27T14:06:17.523Z,34.30
2019-02-27T14:09:22.506Z,32.20
2019-02-27T14:12:29.993Z,29.90
2019-02-27T14:15:34.456Z,28.40
2019-02-27T14:18:39.529Z,26.90
2019-02-27T14:21:44.984Z,25.90
2019-02-27T14:24:51.839Z,24.90
2019-02-27T14:27:56.751Z,24.20
2019-02-27T14:31:01.703Z,23.10
2019-02-27T14:34:06.724Z,22.30
2019-02-27T14:37:16.249Z,21.60
2019-02-27T14:40:19.231Z,21.20
2019-02-27T14:43:44.445Z,20.90
2019-02-27T14:46:49.345Z,20.60
2019-02-27T14:49:54.388Z,20.50
2019-02-27T14:53:02.407Z,20.30
2019-02-27T14:56:10.076Z,20.20
2019-02-27T14:59:13.971Z,20.10
2019-02-27T15:02:22.060Z,20.00
2019-02-27T15:05:25.602Z,19.90
2019-02-27T15:08:30.614Z,19.70
2019-02-27T15:11:35.864Z,19.50
2019-02-27T15:14:40.774Z,19.40
2019-02-27T15:17:45.949Z,19.30
2019-02-27T15:20:50.822Z,19.10
2019-02-27T15:23:58.189Z,18.90
2019-02-27T15:27:11.730Z,18.70
2019-02-27T15:30:18.944Z,18.60
2019-02-27T15:33:23.910Z,18.50
2019-02-27T15:36:30.229Z,18.40
2019-02-27T15:39:35.308Z,18.20
2019-02-27T15:42:42.705Z,18.10
2019-02-27T15:45:48.106Z,18.00
2019-02-27T15:48:53.435Z,18.00
2019-02-27T15:51:58.430Z,18.00
2019-02-27T15:55:03.535Z,18.00
2019-02-27T15:58:08.675Z,17.90
2019-02-27T16:01:14.015Z,18.00
2019-02-27T16:04:21.253Z,17.90
2019-02-27T16:07:26.157Z,17.90
2019-02-27T16:10:31.208Z,17.80
2019-02-27T16:13:36.421Z,17.80
2019-02-27T16:16:41.570Z,17.70
2019-02-27T16:19:46.294Z,17.70
2019-02-27T16:22:51.199Z,17.50
2019-02-27T16:25:56.634Z,17.40
2019-02-27T16:29:01.790Z,17.30
2019-02-27T16:32:06.894Z,17.10
2019-02-27T16:35:12.075Z,17.00
2019-02-27T16:38:19.936Z,16.90
2019-02-27T16:41:28.968Z,16.90
2019-02-27T16:44:31.787Z,16.70
2019-02-27T16:47:37.042Z,16.70
2019-02-27T16:50:43.036Z,16.60
2019-02-27T16:53:52.401Z,16.50
2019-02-27T16:56:54.609Z,16.40
2019-02-27T16:59:59.575Z,16.30
2019-02-27T17:03:16.029Z,16.20
2019-02-27T17:06:21.061Z,16.10
2019-02-27T17:09:25.946Z,16.00
2019-02-27T17:12:38.268Z,16.00
2019-02-27T17:15:42.926Z,15.90
2019-02-27T17:18:47.912Z,15.70
2019-02-27T17:21:52.906Z,15.70
2019-02-27T17:24:57.927Z,15.60
2019-02-27T17:28:03.136Z,15.50
2019-02-27T17:31:11.983Z,15.40
2019-02-27T17:34:14.972Z,15.40
2019-02-27T17:37:20.208Z,15.30
2019-02-27T17:40:25.602Z,15.20
2019-02-27T17:43:30.734Z,15.10
2019-02-27T17:46:35.778Z,15.00
2019-02-27T17:49:40.780Z,14.80
2019-02-27T17:52:48.700Z,14.70
2019-02-27T17:55:52.681Z,14.60
2019-02-27T17:58:57.826Z,14.50
2019-02-27T18:02:02.680Z,14.30
2019-02-27T18:05:07.931Z,14.20
2019-02-27T18:08:15.816Z,14.10
2019-02-27T18:11:19.690Z,14.10
2019-02-27T18:14:25.046Z,13.90
2019-02-27T18:17:34.546Z,13.90
2019-02-27T18:20:36.981Z,13.80
2019-02-27T18:23:42.109Z,13.70
2019-02-27T18:26:50.091Z,13.60
2019-02-27T18:29:54.156Z,13.50
2019-02-27T18:33:01.272Z,13.20
2019-02-27T18:36:06.634Z,13.20
2019-02-27T18:39:11.955Z,13.20
2019-02-27T18:42:20.540Z,13.00
2019-02-27T18:45:24.842Z,12.80
2019-02-27T18:48:29.821Z,12.80
2019-02-27T18:51:34.797Z,12.70
2019-02-27T18:54:39.930Z,12.70
2019-02-27T18:57:47.285Z,12.60
2019-02-27T19:00:51.745Z,12.60
2019-02-27T19:04:00.313Z,12.40
2019-02-27T19:07:05.218Z,12.40
2019-02-27T19:10:10.596Z,12.30
2019-02-27T19:13:15.692Z,12.20
2019-02-27T19:16:21.505Z,12.10
2019-02-27T19:19:26.895Z,12.00
2019-02-27T19:22:32.335Z,11.90
2019-02-27T19:25:37.272Z,11.90
2019-02-27T19:28:42.902Z,11.90
2019-02-27T19:31:48.379Z,11.90
2019-02-27T19:34:54.616Z,11.70
2019-02-27T19:37:59.726Z,11.60
2019-02-27T19:41:04.876Z,11.50
2019-02-27T19:44:10.053Z,11.50
2019-02-27T19:47:18.396Z,11.40
2019-02-27T19:50:22.341Z,11.30
2019-02-27T19:53:27.381Z,11.20
2019-02-27T19:56:35.535Z,11.20
2019-02-27T19:59:39.332Z,11.20
2019-02-27T20:02:44.449Z,11.10
2019-02-27T20:05:50.580Z,11.10
2019-02-27T20:08:56.325Z,11.00
2019-02-27T20:12:01.398Z,10.90
2019-02-27T20:15:08.379Z,10.70
2019-02-27T20:18:13.835Z,10.60
2019-02-27T20:21:19.006Z,10.50
2019-02-27T20:24:24.050Z,10.50
2019-02-27T20:27:29.241Z,10.50
2019-02-27T20:30:34.536Z,10.40
2019-02-27T20:33:39.576Z,10.40
2019-02-27T20:36:45.252Z,10.30
2019-02-27T20:39:50.294Z,10.30
2019-02-27T20:42:55.508Z,10.30
2019-02-27T20:46:00.836Z,10.20
2019-02-27T20:49:06.262Z,10.10
2019-02-27T20:52:14.931Z,10.00
2019-02-27T20:55:18.116Z,10.00
2019-02-27T20:58:23.342Z,10.00
2019-02-27T21:01:28.467Z,10.00
2019-02-27T21:04:35.286Z,9.90
2019-02-27T21:07:45.812Z,9.90
